createdAt,value
2018-10-03T00:02:00.429Z,3.67
2018-10-03T00:04:29.306Z,4.03
2018-10-03T00:06:58.060Z,4.20
2018-10-03T00:09:26.797Z,4.40
2018-10-03T00:11:56.274Z,4.03
2018-10-03T00:14:25.019Z,4.83
2018-10-03T00:16:53.797Z,4.20
2018-10-03T00:19:22.506Z,4.53
2018-10-03T00:21:51.229Z,3.40
2018-10-03T00:24:19.966Z,4.03
2018-10-03T00:26:48.683Z,3.83
2018-10-03T00:29:17.792Z,3.77
2018-10-03T00:31:47.543Z,3.93
2018-10-03T00:34:16.266Z,3.50
2018-10-03T00:36:45.297Z,3.80
2018-10-03T00:39:14.748Z,5.67
2018-10-03T00:41:48.391Z,5.73
2018-10-03T00:44:20.626Z,3.73
2018-10-03T00:46:54.849Z,4.83
2018-10-03T00:49:26.049Z,4.83
2018-10-03T00:51:56.012Z,4.30
2018-10-03T00:54:25.795Z,4.08
2018-10-03T00:56:55.674Z,3.87
2018-10-03T00:59:24.604Z,3.17
2018-10-03T01:01:53.321Z,4.00
2018-10-03T01:04:22.187Z,3.73
2018-10-03T01:06:50.844Z,4.23
2018-10-03T01:09:20.526Z,3.53
2018-10-03T01:11:49.144Z,3.77
2018-10-03T01:14:17.854Z,3.97
2018-10-03T01:16:46.768Z,3.20
2018-10-03T01:19:15.548Z,3.53
2018-10-03T01:21:44.195Z,4.30
2018-10-03T01:24:12.884Z,3.40
2018-10-03T01:26:41.504Z,3.37
2018-10-03T01:29:10.231Z,3.37
2018-10-03T01:31:38.913Z,4.40
2018-10-03T01:34:07.579Z,3.67
2018-10-03T01:36:36.393Z,4.03
2018-10-03T01:39:07.175Z,4.30
2018-10-03T01:41:35.938Z,4.00
2018-10-03T01:44:04.818Z,4.17
2018-10-03T01:46:33.507Z,2.93
2018-10-03T01:49:02.376Z,4.20
2018-10-03T01:51:31.767Z,3.50
2018-10-03T01:54:00.555Z,3.20
2018-10-03T01:56:29.487Z,3.50
2018-10-03T01:58:58.315Z,2.73
2018-10-03T02:01:27.169Z,3.27
2018-10-03T02:03:56.167Z,3.70
2018-10-03T02:06:24.763Z,3.80
2018-10-03T02:08:53.410Z,3.77
2018-10-03T02:11:22.056Z,3.50
2018-10-03T02:13:50.839Z,3.47
2018-10-03T02:16:19.544Z,3.30
2018-10-03T02:18:48.191Z,3.83
2018-10-03T02:21:16.806Z,3.60
2018-10-03T02:23:45.594Z,3.40
2018-10-03T02:26:14.210Z,4.17
2018-10-03T02:28:42.984Z,3.03
2018-10-03T02:31:11.817Z,3.50
2018-10-03T02:33:40.665Z,3.57
2018-10-03T02:36:09.659Z,2.90
2018-10-03T02:38:38.330Z,3.00
2018-10-03T02:41:06.958Z,2.63
2018-10-03T02:43:36.354Z,3.40
2018-10-03T02:46:05.099Z,3.20
2018-10-03T02:48:33.860Z,3.10
2018-10-03T02:51:02.536Z,3.60
2018-10-03T02:56:07.708Z,3.43
2018-10-03T02:58:36.913Z,4.10
2018-10-03T03:01:05.627Z,3.40
2018-10-03T03:03:34.349Z,2.97
2018-10-03T03:06:03.179Z,3.83
2018-10-03T03:08:31.987Z,2.90
2018-10-03T03:11:00.506Z,3.50
2018-10-03T03:13:29.155Z,3.10
2018-10-03T03:15:57.962Z,3.70
2018-10-03T03:18:26.603Z,2.80
2018-10-03T03:20:55.948Z,3.50
2018-10-03T03:23:24.560Z,3.23
2018-10-03T03:25:53.292Z,4.50
2018-10-03T03:28:21.917Z,3.30
2018-10-03T03:30:50.752Z,4.20
2018-10-03T03:33:19.380Z,3.47
2018-10-03T03:35:48.038Z,3.30
2018-10-03T03:38:16.726Z,3.60
2018-10-03T03:40:45.660Z,3.20
2018-10-03T03:43:14.343Z,3.23
2018-10-03T03:45:43.015Z,3.50
2018-10-03T03:48:11.625Z,3.93
2018-10-03T03:50:40.341Z,3.83
2018-10-03T03:53:09.063Z,3.37
2018-10-03T03:55:37.902Z,3.50
2018-10-03T03:58:06.507Z,2.87
2018-10-03T04:00:35.181Z,3.90
2018-10-03T04:03:03.875Z,3.13
2018-10-03T04:05:32.700Z,3.23
2018-10-03T04:08:01.348Z,3.37
2018-10-03T04:10:30.039Z,2.97
2018-10-03T04:12:58.815Z,3.70
2018-10-03T04:15:27.671Z,3.33
2018-10-03T04:17:56.412Z,3.57
2018-10-03T04:20:25.061Z,3.37
2018-10-03T04:22:53.832Z,3.70
2018-10-03T04:25:22.508Z,3.53
2018-10-03T04:27:51.182Z,4.37
2018-10-03T04:39:02.120Z,3.43
2018-10-03T04:41:31.510Z,3.30
2018-10-03T04:44:00.957Z,3.47
2018-10-03T04:46:30.262Z,3.40
2018-10-03T04:48:59.649Z,3.70
2018-10-03T04:51:28.672Z,2.70
2018-10-03T04:53:58.004Z,3.13
2018-10-03T04:56:27.298Z,3.70
2018-10-03T04:58:57.396Z,3.87
2018-10-03T05:01:34.446Z,3.50
2018-10-03T05:04:04.581Z,3.43
2018-10-03T05:06:34.155Z,3.67
2018-10-03T05:09:05.355Z,3.97
2018-10-03T05:11:35.073Z,3.37
2018-10-03T05:14:10.669Z,2.90
2018-10-03T05:16:41.050Z,3.33
2018-10-03T05:19:12.397Z,3.30
2018-10-03T05:21:42.663Z,3.37
2018-10-03T05:24:11.802Z,3.20
2018-10-03T05:26:41.228Z,3.17
2018-10-03T05:31:57.170Z,3.67
2018-10-03T05:34:25.850Z,3.13
2018-10-03T05:36:54.636Z,2.87
2018-10-03T05:39:23.246Z,3.23
2018-10-03T05:44:26.984Z,3.03
2018-10-03T05:46:55.610Z,3.50
2018-10-03T05:49:24.260Z,3.03
2018-10-03T05:51:53.054Z,3.40
2018-10-03T05:54:21.770Z,4.00
2018-10-03T05:56:50.531Z,3.50
2018-10-03T05:59:22.844Z,3.87
2018-10-03T06:01:51.781Z,3.63
2018-10-03T06:04:20.580Z,4.00
2018-10-03T06:06:49.239Z,5.30
2018-10-03T06:09:18.005Z,3.60
2018-10-03T06:11:46.995Z,6.40
2018-10-03T06:14:15.698Z,3.10
2018-10-03T06:16:44.429Z,4.70
2018-10-03T06:19:13.230Z,3.80
2018-10-03T06:21:41.943Z,3.87
2018-10-03T06:24:10.773Z,3.40
2018-10-03T06:26:39.367Z,3.17
2018-10-03T06:29:08.373Z,3.50
2018-10-03T06:31:37.273Z,3.53
2018-10-03T06:34:05.934Z,3.00
2018-10-03T06:36:34.657Z,3.23
2018-10-03T06:39:09.765Z,3.53
2018-10-03T06:41:42.651Z,3.77
2018-10-03T06:44:13.578Z,3.57
2018-10-03T06:46:42.243Z,3.80
2018-10-03T06:49:11.231Z,3.60
2018-10-03T06:51:39.914Z,3.93
2018-10-03T06:54:08.515Z,3.60
2018-10-03T06:56:37.318Z,3.87
2018-10-03T06:59:06.052Z,3.43
2018-10-03T07:01:34.732Z,3.23
2018-10-03T07:04:04.040Z,3.37
2018-10-03T07:06:33.041Z,2.73
2018-10-03T07:09:01.731Z,3.53
2018-10-03T07:11:30.681Z,3.03
2018-10-03T07:13:59.328Z,2.90
2018-10-03T07:16:28.464Z,2.73
2018-10-03T07:18:57.234Z,3.03
2018-10-03T07:21:25.838Z,3.23
2018-10-03T07:23:55.043Z,3.30
2018-10-03T07:26:23.753Z,2.67
2018-10-03T07:28:52.554Z,3.63
2018-10-03T07:31:21.261Z,2.97
2018-10-03T07:33:50.035Z,3.03
2018-10-03T07:36:18.885Z,3.20
2018-10-03T07:38:47.535Z,2.70
2018-10-03T07:41:16.223Z,2.70
2018-10-03T07:43:44.817Z,3.13
2018-10-03T07:46:13.509Z,2.80
2018-10-03T07:48:42.375Z,3.00
2018-10-03T07:51:11.239Z,3.00
2018-10-03T07:53:39.954Z,2.53
2018-10-03T07:56:08.586Z,3.17
2018-10-03T07:58:37.336Z,2.23
2018-10-03T08:01:06.412Z,2.87
2018-10-03T08:03:35.270Z,2.53
2018-10-03T08:06:06.173Z,2.13
2018-10-03T08:08:35.954Z,2.60
2018-10-03T08:11:04.858Z,2.73
2018-10-03T08:13:33.477Z,2.40
2018-10-03T08:16:02.304Z,2.30
2018-10-03T08:18:31.547Z,3.30
2018-10-03T08:21:01.192Z,3.17
2018-10-03T08:23:30.717Z,2.70
2018-10-03T08:26:02.360Z,2.77
2018-10-03T08:28:31.845Z,2.57
2018-10-03T08:31:01.426Z,2.30
2018-10-03T08:33:30.843Z,2.90
2018-10-03T08:36:00.833Z,2.17
2018-10-03T08:38:29.620Z,2.37
2018-10-03T08:40:59.128Z,2.50
2018-10-03T08:43:27.871Z,2.53
2018-10-03T08:45:57.358Z,2.60
2018-10-03T08:48:26.231Z,2.37
2018-10-03T08:50:55.820Z,2.30
2018-10-03T08:53:26.930Z,2.10
2018-10-03T08:55:56.812Z,3.00
2018-10-03T08:58:25.660Z,2.50
2018-10-03T09:00:55.733Z,2.23
2018-10-03T09:03:24.846Z,2.40
2018-10-03T09:05:54.049Z,2.27
2018-10-03T09:08:22.810Z,2.03
2018-10-03T09:10:52.577Z,1.87
2018-10-03T09:13:22.677Z,2.20
2018-10-03T09:15:56.397Z,2.40
2018-10-03T09:18:25.454Z,2.50
2018-10-03T09:20:54.265Z,2.00
2018-10-03T09:23:23.302Z,2.57
2018-10-03T09:25:53.346Z,2.40
2018-10-03T09:28:22.338Z,2.17
2018-10-03T09:33:35.750Z,2.53
2018-10-03T09:36:04.605Z,2.50
2018-10-03T09:38:42.072Z,2.30
2018-10-03T09:41:11.554Z,2.60
2018-10-03T09:43:42.174Z,2.50
2018-10-03T09:46:21.563Z,2.30
2018-10-03T09:48:50.506Z,2.20
2018-10-03T10:17:09.217Z,2.47
2018-10-03T10:19:38.682Z,2.13
2018-10-03T10:22:08.130Z,2.10
2018-10-03T10:24:36.810Z,2.03
2018-10-03T10:27:07.936Z,2.33
2018-10-03T10:29:36.886Z,2.23
2018-10-03T10:32:06.730Z,1.90
2018-10-03T10:34:35.554Z,2.17
2018-10-03T10:37:04.318Z,2.03
2018-10-03T10:39:33.235Z,2.30
2018-10-03T10:42:08.593Z,1.92
2018-10-03T10:44:38.194Z,2.02
2018-10-03T10:47:06.983Z,2.37
2018-10-03T10:49:36.024Z,1.92
2018-10-03T10:52:05.347Z,2.05
2018-10-03T10:54:36.316Z,2.23
2018-10-03T10:57:06.045Z,2.20
2018-10-03T10:59:35.374Z,2.23
2018-10-03T11:02:04.845Z,2.53
2018-10-03T11:04:34.888Z,2.67
2018-10-03T11:07:04.151Z,2.67
2018-10-03T11:09:34.534Z,3.00
2018-10-03T11:12:04.306Z,2.50
2018-10-03T11:14:33.432Z,2.30
2018-10-03T11:17:03.182Z,2.40
2018-10-03T11:19:32.840Z,2.20
2018-10-03T11:22:05.274Z,2.50
2018-10-03T11:24:36.608Z,2.00
2018-10-03T11:27:06.386Z,1.93
2018-10-03T11:29:41.190Z,2.10
2018-10-03T11:32:11.160Z,1.60
2018-10-03T11:34:40.838Z,1.83
2018-10-03T11:37:09.784Z,2.30
2018-10-03T11:39:38.889Z,2.70
2018-10-03T11:42:08.838Z,2.40
2018-10-03T11:44:38.082Z,2.37
2018-10-03T11:47:06.816Z,1.82
2018-10-03T11:49:35.628Z,2.10
2018-10-03T11:52:05.372Z,2.20
2018-10-03T11:54:35.345Z,2.20
2018-10-03T11:57:05.429Z,2.40
2018-10-03T11:59:34.390Z,2.00
2018-10-03T12:02:03.457Z,1.62
2018-10-03T12:04:33.631Z,1.85
2018-10-03T12:07:03.580Z,1.40
2018-10-03T12:09:32.364Z,2.20
2018-10-03T12:12:01.961Z,2.22
2018-10-03T12:14:31.390Z,1.80
2018-10-03T12:17:00.097Z,2.90
2018-10-03T12:19:28.962Z,1.52
2018-10-03T12:21:57.753Z,1.87
2018-10-03T12:24:27.468Z,1.80
2018-10-03T12:26:56.576Z,1.70
2018-10-03T12:29:25.711Z,2.00
2018-10-03T12:31:54.477Z,1.87
2018-10-03T12:34:23.438Z,1.90
2018-10-03T12:36:54.032Z,1.75
2018-10-03T12:39:22.703Z,1.72
2018-10-03T12:41:51.540Z,1.67
2018-10-03T12:44:20.325Z,2.10
2018-10-03T12:46:49.083Z,1.60
2018-10-03T12:49:18.176Z,1.80
2018-10-03T12:51:46.953Z,1.60
2018-10-03T12:54:16.744Z,1.73
2018-10-03T12:56:45.500Z,1.90
2018-10-03T12:59:14.764Z,1.90
2018-10-03T13:01:43.611Z,2.30
2018-10-03T13:04:12.532Z,1.97
2018-10-03T13:06:43.739Z,2.13
2018-10-03T13:09:14.376Z,1.75
2018-10-03T13:11:43.877Z,1.63
2018-10-03T13:14:14.481Z,1.63
2018-10-03T13:16:43.187Z,1.27
2018-10-03T13:19:12.527Z,1.60
2018-10-03T13:21:41.436Z,1.50
2018-10-03T13:24:10.171Z,1.50
2018-10-03T13:26:39.863Z,1.27
2018-10-03T13:29:08.744Z,1.20
2018-10-03T13:31:37.532Z,1.40
2018-10-03T13:34:06.298Z,1.40
2018-10-03T13:36:35.142Z,1.53
2018-10-03T13:39:04.499Z,1.77
2018-10-03T13:41:34.511Z,1.47
2018-10-03T13:44:03.215Z,1.60
2018-10-03T13:46:32.394Z,1.67
2018-10-03T13:49:01.415Z,1.63
2018-10-03T13:51:30.310Z,1.60
2018-10-03T13:53:59.089Z,1.83
2018-10-03T13:56:28.046Z,1.40
2018-10-03T13:58:57.685Z,1.63
2018-10-03T14:01:26.527Z,1.60
2018-10-03T14:03:55.187Z,1.80
2018-10-03T14:06:24.335Z,1.67
2018-10-03T14:08:53.376Z,1.60
2018-10-03T14:11:22.247Z,1.40
2018-10-03T14:13:51.060Z,1.70
2018-10-03T14:16:20.108Z,2.00
2018-10-03T14:18:49.940Z,1.47
2018-10-03T14:21:18.848Z,1.73
2018-10-03T14:23:47.909Z,1.80
2018-10-03T14:26:18.079Z,2.00
2018-10-03T14:28:46.990Z,1.47
2018-10-03T14:31:15.889Z,1.40
2018-10-03T14:33:44.785Z,1.80
2018-10-03T14:36:13.604Z,1.80
2018-10-03T14:38:42.445Z,1.67
2018-10-03T14:41:14.017Z,1.57
2018-10-03T14:43:43.421Z,1.60
2018-10-03T14:46:13.068Z,1.90
2018-10-03T14:48:43.022Z,1.93
2018-10-03T14:51:23.745Z,2.10
2018-10-03T14:53:59.892Z,1.90
2018-10-03T14:56:31.328Z,1.93
2018-10-03T14:59:02.406Z,2.10
2018-10-03T15:01:33.705Z,1.87
2018-10-03T15:04:03.137Z,2.17
2018-10-03T15:06:35.967Z,1.43
2018-10-03T15:09:16.418Z,1.53
2018-10-03T15:11:53.250Z,1.97
2018-10-03T15:14:25.656Z,2.20
2018-10-03T15:16:55.382Z,2.43
2018-10-03T15:19:24.716Z,4.10
2018-10-03T15:21:53.585Z,2.20
2018-10-03T15:24:22.366Z,2.10
2018-10-03T15:26:51.113Z,1.90
2018-10-03T15:29:21.476Z,1.93
2018-10-03T15:31:54.397Z,2.30
2018-10-03T15:34:23.668Z,2.40
2018-10-03T15:36:53.811Z,1.90
2018-10-03T15:39:24.449Z,2.33
2018-10-03T15:41:55.177Z,1.90
2018-10-03T15:44:25.595Z,2.87
2018-10-03T15:46:57.740Z,2.50
2018-10-03T15:49:27.027Z,2.10
2018-10-03T15:51:56.156Z,2.83
2018-10-03T15:54:27.554Z,2.47
2018-10-03T15:57:00.567Z,2.30
2018-10-03T15:59:31.986Z,2.53
2018-10-03T16:02:00.993Z,2.37
2018-10-03T16:04:30.255Z,2.23
2018-10-03T16:06:59.016Z,2.13
2018-10-03T16:09:28.031Z,2.23
2018-10-03T16:11:56.987Z,2.27
2018-10-03T16:14:25.694Z,2.27
2018-10-03T16:17:08.740Z,2.47
2018-10-03T16:19:37.598Z,2.00
2018-10-03T16:22:08.362Z,2.37
2018-10-03T16:24:39.185Z,2.87
2018-10-03T16:27:07.912Z,2.47
2018-10-03T16:29:36.655Z,2.53
2018-10-03T16:32:06.571Z,2.50
2018-10-03T16:34:35.778Z,2.63
2018-10-03T16:37:05.116Z,2.50
2018-10-03T16:39:34.172Z,2.93
2018-10-03T16:58:05.500Z,2.30
2018-10-03T17:00:34.568Z,2.77
2018-10-03T17:03:03.282Z,2.57
2018-10-03T17:05:32.253Z,2.50
2018-10-03T17:08:00.975Z,2.93
2018-10-03T17:10:30.051Z,2.10
2018-10-03T17:13:00.332Z,2.57
2018-10-03T17:15:29.242Z,2.40
2018-10-03T17:18:02.105Z,2.50
2018-10-03T17:20:31.779Z,2.33
2018-10-03T17:23:00.479Z,2.33
2018-10-03T17:25:30.883Z,2.43
2018-10-03T17:28:01.353Z,2.50
2018-10-03T17:30:50.459Z,2.27
2018-10-03T17:33:20.003Z,2.30
2018-10-03T17:35:48.945Z,1.60
2018-10-03T17:38:18.057Z,2.10
2018-10-03T17:40:46.883Z,2.37
2018-10-03T17:43:16.140Z,2.30
2018-10-03T17:45:45.094Z,2.33
2018-10-03T17:48:15.036Z,2.83
2018-10-03T17:50:44.644Z,2.27
2018-10-03T17:53:14.259Z,1.70
2018-10-03T17:55:44.663Z,2.00
2018-10-03T17:58:14.321Z,2.30
2018-10-03T18:00:43.765Z,3.10
2018-10-03T18:03:14.496Z,2.40
2018-10-03T18:05:44.007Z,1.77
2018-10-03T18:08:13.150Z,1.63
2018-10-03T18:10:42.220Z,2.43
2018-10-03T18:13:11.941Z,1.90
2018-10-03T18:15:41.161Z,1.90
2018-10-03T18:18:10.451Z,1.63
2018-10-03T18:20:39.304Z,1.80
2018-10-03T18:23:08.033Z,2.07
2018-10-03T18:25:36.940Z,2.20
2018-10-03T18:28:05.900Z,1.90
2018-10-03T18:30:34.788Z,1.83
2018-10-03T18:33:03.710Z,1.80
2018-10-03T18:35:32.567Z,2.77
2018-10-03T18:38:01.567Z,1.80
2018-10-03T18:40:30.513Z,1.60
2018-10-03T18:42:59.326Z,1.63
2018-10-03T18:45:28.056Z,2.50
2018-10-03T18:47:56.856Z,2.90
2018-10-03T18:50:25.667Z,2.07
2018-10-03T18:52:54.373Z,1.97
2018-10-03T18:55:23.280Z,2.80
2018-10-03T18:57:52.929Z,2.40
2018-10-03T19:00:22.028Z,2.77
2018-10-03T19:02:50.890Z,2.80
2018-10-03T19:05:19.734Z,2.50
2018-10-03T19:07:48.826Z,2.83
2018-10-03T19:10:17.617Z,2.57
2018-10-03T19:12:46.609Z,4.43
2018-10-03T19:15:15.543Z,3.10
2018-10-03T19:17:44.632Z,2.20
2018-10-03T19:20:14.376Z,2.70
2018-10-03T19:22:43.149Z,1.60
2018-10-03T19:25:12.577Z,2.17
2018-10-03T19:27:42.090Z,2.33
2018-10-03T19:30:10.976Z,2.37
2018-10-03T19:32:39.813Z,1.97
2018-10-03T19:35:08.633Z,2.17
2018-10-03T19:37:37.640Z,1.70
2018-10-03T19:40:06.577Z,2.10
2018-10-03T19:42:35.355Z,2.23
2018-10-03T19:45:04.749Z,1.93
2018-10-03T19:47:34.956Z,1.77
2018-10-03T19:50:04.215Z,2.67
2018-10-03T19:52:40.322Z,2.27
2018-10-03T19:55:09.438Z,2.17
2018-10-03T19:57:40.427Z,2.23
2018-10-03T20:00:10.460Z,2.60
2018-10-03T20:02:39.274Z,2.33
2018-10-03T20:05:08.075Z,2.33
2018-10-03T20:07:36.967Z,2.47
2018-10-03T20:10:05.775Z,1.93
2018-10-03T20:12:34.723Z,1.97
2018-10-03T20:15:03.426Z,2.23
2018-10-03T20:17:32.245Z,2.10
2018-10-03T20:20:01.345Z,1.83
2018-10-03T20:22:30.194Z,2.13
2018-10-03T20:24:58.975Z,2.63
2018-10-03T20:27:28.018Z,2.40
2018-10-03T20:29:57.905Z,2.50
2018-10-03T20:32:27.100Z,2.17
2018-10-03T20:34:55.881Z,2.07
2018-10-03T20:37:24.581Z,2.17
2018-10-03T20:39:53.312Z,2.13
2018-10-03T20:42:22.016Z,2.10
2018-10-03T20:44:50.791Z,1.80
2018-10-03T20:47:19.449Z,2.00
2018-10-03T20:49:48.271Z,2.30
2018-10-03T20:52:17.554Z,2.10
2018-10-03T20:54:47.625Z,2.67
2018-10-03T20:57:16.689Z,2.20
2018-10-03T20:59:46.028Z,2.10
2018-10-03T21:02:15.033Z,1.97
2018-10-03T21:04:43.894Z,2.10
2018-10-03T21:07:12.765Z,2.20
2018-10-03T21:09:41.945Z,2.10
2018-10-03T21:12:10.877Z,2.10
2018-10-03T21:14:39.701Z,2.00
2018-10-03T21:17:19.506Z,2.63
2018-10-03T21:19:49.777Z,2.20
2018-10-03T21:22:18.581Z,2.10
2018-10-03T21:24:48.643Z,2.30
2018-10-03T21:27:17.248Z,2.23
2018-10-03T21:29:46.948Z,2.13
2018-10-03T21:32:16.435Z,2.00
2018-10-03T21:34:45.034Z,2.27
2018-10-03T21:37:14.053Z,2.10
2018-10-03T21:39:42.638Z,1.90
2018-10-03T21:42:11.701Z,2.37
2018-10-03T21:44:40.468Z,2.13
2018-10-03T21:47:09.195Z,2.50
2018-10-03T21:49:38.812Z,1.87
2018-10-03T21:52:07.846Z,2.00
2018-10-03T21:54:36.509Z,1.97
2018-10-03T21:57:05.537Z,2.03
2018-10-03T21:59:34.839Z,2.27
2018-10-03T22:02:03.418Z,1.83
2018-10-03T22:04:33.219Z,2.23
2018-10-03T22:07:01.926Z,2.00
2018-10-03T22:09:30.613Z,1.90
2018-10-03T22:11:59.748Z,2.00
2018-10-03T22:14:28.427Z,1.93
2018-10-03T22:16:57.451Z,1.70
2018-10-03T22:19:26.293Z,2.10
2018-10-03T22:21:54.954Z,1.93
2018-10-03T22:24:23.635Z,2.00
2018-10-03T22:26:52.287Z,2.23
2018-10-03T22:29:21.139Z,2.00
2018-10-03T22:31:49.863Z,1.80
2018-10-03T22:34:18.480Z,1.93
2018-10-03T22:36:47.231Z,2.37
2018-10-03T22:39:15.972Z,2.07
2018-10-03T22:41:44.628Z,1.90
2018-10-03T22:44:13.358Z,2.17
2018-10-03T22:46:42.013Z,2.30
2018-10-03T22:49:10.685Z,2.10
2018-10-03T22:51:39.530Z,1.80
2018-10-03T22:54:08.098Z,1.83
2018-10-03T22:56:36.849Z,2.07
2018-10-03T22:59:05.927Z,1.80
2018-10-03T23:01:34.620Z,2.00
2018-10-03T23:04:03.478Z,1.90
2018-10-03T23:06:32.391Z,2.30
2018-10-03T23:09:01.013Z,2.50
2018-10-03T23:11:29.749Z,1.83
2018-10-03T23:13:58.441Z,1.90
2018-10-03T23:16:27.258Z,2.13
2018-10-03T23:18:55.959Z,2.10
2018-10-03T23:21:24.633Z,1.90
2018-10-03T23:23:53.296Z,1.60
2018-10-03T23:26:21.997Z,2.03
2018-10-03T23:28:50.711Z,1.90
2018-10-03T23:31:19.595Z,2.10
2018-10-03T23:33:48.237Z,1.73
2018-10-03T23:36:16.945Z,2.23
2018-10-03T23:38:45.783Z,1.77
2018-10-03T23:41:14.587Z,2.50
2018-10-03T23:43:43.265Z,2.10
2018-10-03T23:46:11.931Z,1.43
2018-10-03T23:48:40.669Z,1.50
2018-10-03T23:51:09.324Z,2.27
2018-10-03T23:53:37.953Z,2.00
2018-10-03T23:56:06.658Z,2.07
2018-10-03T23:58:35.274Z,1.60
